sensor_id;sensor_type;location;lat;lon;timestamp;P1;durP1;ratioP1;P2;durP2;ratioP2
26303;SDS011;70693;48.680;8.890;2023-06-19T00:01:15;4.78;;;4.15;;
26303;SDS011;70693;48.680;8.890;2023-06-19T00:03:40;6.05;;;4.30;;
26303;SDS011;70693;48.680;8.890;2023-06-19T00:06:06;6.97;;;4.20;;
26303;SDS011;70693;48.680;8.890;2023-06-19T00:08:32;4.50;;;4.10;;
26303;SDS011;70693;48.680;8.890;2023-06-19T00:10:58;5.57;;;4.50;;
26303;SDS011;70693;48.680;8.890;2023-06-19T00:13:23;5.10;;;4.50;;
26303;SDS011;70693;48.680;8.890;2023-06-19T00:15:49;4.75;;;4.25;;
26303;SDS011;70693;48.680;8.890;2023-06-19T00:18:15;5.10;;;4.35;;
26303;SDS011;70693;48.680;8.890;2023-06-19T00:20:42;5.55;;;4.70;;
26303;SDS011;70693;48.680;8.890;2023-06-19T00:23:11;4.82;;;3.80;;
26303;SDS011;70693;48.680;8.890;2023-06-19T00:25:39;5.20;;;4.53;;
26303;SDS011;70693;48.680;8.890;2023-06-19T00:28:06;4.43;;;3.92;;
26303;SDS011;70693;48.680;8.890;2023-06-19T00:30:36;5.30;;;4.45;;
26303;SDS011;70693;48.680;8.890;2023-06-19T00:33:02;4.70;;;4.28;;
26303;SDS011;70693;48.680;8.890;2023-06-19T00:35:28;5.05;;;4.30;;
26303;SDS011;70693;48.680;8.890;2023-06-19T00:37:54;4.63;;;4.20;;
26303;SDS011;70693;48.680;8.890;2023-06-19T00:40:24;4.70;;;4.22;;
26303;SDS011;70693;48.680;8.890;2023-06-19T00:42:52;4.70;;;4.18;;
26303;SDS011;70693;48.680;8.890;2023-06-19T00:45:18;4.82;;;4.25;;
26303;SDS011;70693;48.680;8.890;2023-06-19T00:47:44;4.72;;;4.10;;
26303;SDS011;70693;48.680;8.890;2023-06-19T00:50:10;6.88;;;4.80;;
26303;SDS011;70693;48.680;8.890;2023-06-19T00:52:36;5.78;;;4.68;;
26303;SDS011;70693;48.680;8.890;2023-06-19T00:55:03;5.07;;;4.53;;
26303;SDS011;70693;48.680;8.890;2023-06-19T00:57:30;4.93;;;4.25;;
26303;SDS011;70693;48.680;8.890;2023-06-19T00:59:57;5.47;;;4.93;;
26303;SDS011;70693;48.680;8.890;2023-06-19T01:02:24;5.88;;;4.30;;
26303;SDS011;70693;48.680;8.890;2023-06-19T01:04:50;6.72;;;4.65;;
26303;SDS011;70693;48.680;8.890;2023-06-19T01:07:18;4.95;;;4.07;;
26303;SDS011;70693;48.680;8.890;2023-06-19T01:09:54;4.35;;;3.78;;
26303;SDS011;70693;48.680;8.890;2023-06-19T01:12:27;4.90;;;4.20;;
26303;SDS011;70693;48.680;8.890;2023-06-19T01:15:00;4.75;;;4.22;;
26303;SDS011;70693;48.680;8.890;2023-06-19T01:17:28;5.28;;;4.78;;
26303;SDS011;70693;48.680;8.890;2023-06-19T01:19:55;5.75;;;4.65;;
26303;SDS011;70693;48.680;8.890;2023-06-19T01:22:23;5.10;;;4.25;;
26303;SDS011;70693;48.680;8.890;2023-06-19T01:24:55;5.88;;;4.72;;
26303;SDS011;70693;48.680;8.890;2023-06-19T01:27:21;5.40;;;4.60;;
26303;SDS011;70693;48.680;8.890;2023-06-19T01:29:48;6.18;;;4.25;;
26303;SDS011;70693;48.680;8.890;2023-06-19T01:32:22;6.28;;;4.55;;
26303;SDS011;70693;48.680;8.890;2023-06-19T01:34:54;4.90;;;4.30;;
26303;SDS011;70693;48.680;8.890;2023-06-19T01:37:23;4.30;;;3.90;;
26303;SDS011;70693;48.680;8.890;2023-06-19T01:39:54;4.60;;;4.10;;
26303;SDS011;70693;48.680;8.890;2023-06-19T01:42:22;6.28;;;4.82;;
26303;SDS011;70693;48.680;8.890;2023-06-19T01:44:48;4.60;;;4.05;;
26303;SDS011;70693;48.680;8.890;2023-06-19T01:47:14;4.25;;;3.70;;
26303;SDS011;70693;48.680;8.890;2023-06-19T01:49:44;5.47;;;4.32;;
26303;SDS011;70693;48.680;8.890;2023-06-19T01:52:11;4.75;;;4.18;;
26303;SDS011;70693;48.680;8.890;2023-06-19T01:54:36;5.47;;;3.85;;
26303;SDS011;70693;48.680;8.890;2023-06-19T01:57:02;5.05;;;4.18;;
26303;SDS011;70693;48.680;8.890;2023-06-19T01:59:28;4.88;;;3.85;;
26303;SDS011;70693;48.680;8.890;2023-06-19T02:01:53;6.07;;;4.22;;
26303;SDS011;70693;48.680;8.890;2023-06-19T02:04:19;4.53;;;3.78;;
26303;SDS011;70693;48.680;8.890;2023-06-19T02:06:45;4.35;;;3.95;;
26303;SDS011;70693;48.680;8.890;2023-06-19T02:09:10;5.97;;;3.58;;
26303;SDS011;70693;48.680;8.890;2023-06-19T02:11:36;5.35;;;4.03;;
26303;SDS011;70693;48.680;8.890;2023-06-19T02:14:01;4.28;;;3.50;;
26303;SDS011;70693;48.680;8.890;2023-06-19T02:16:27;6.65;;;4.35;;
26303;SDS011;70693;48.680;8.890;2023-06-19T02:18:53;4.75;;;3.88;;
26303;SDS011;70693;48.680;8.890;2023-06-19T02:21:18;4.50;;;3.60;;
26303;SDS011;70693;48.680;8.890;2023-06-19T02:23:44;4.13;;;3.72;;
26303;SDS011;70693;48.680;8.890;2023-06-19T02:26:10;4.15;;;3.75;;
26303;SDS011;70693;48.680;8.890;2023-06-19T02:28:35;4.40;;;3.97;;
26303;SDS011;70693;48.680;8.890;2023-06-19T02:31:01;4.15;;;3.50;;
26303;SDS011;70693;48.680;8.890;2023-06-19T02:33:26;4.20;;;3.58;;
26303;SDS011;70693;48.680;8.890;2023-06-19T02:35:53;5.28;;;3.53;;
26303;SDS011;70693;48.680;8.890;2023-06-19T02:38:24;3.67;;;3.38;;
26303;SDS011;70693;48.680;8.890;2023-06-19T02:40:50;5.25;;;3.63;;
26303;SDS011;70693;48.680;8.890;2023-06-19T02:43:16;3.75;;;3.28;;
26303;SDS011;70693;48.680;8.890;2023-06-19T02:45:42;4.35;;;3.50;;
26303;SDS011;70693;48.680;8.890;2023-06-19T02:48:07;3.80;;;3.40;;
26303;SDS011;70693;48.680;8.890;2023-06-19T02:50:33;4.00;;;3.60;;
26303;SDS011;70693;48.680;8.890;2023-06-19T02:52:59;4.10;;;3.40;;
26303;SDS011;70693;48.680;8.890;2023-06-19T02:55:25;4.38;;;3.42;;
26303;SDS011;70693;48.680;8.890;2023-06-19T02:57:50;6.95;;;3.70;;
26303;SDS011;70693;48.680;8.890;2023-06-19T03:00:16;3.83;;;3.50;;
26303;SDS011;70693;48.680;8.890;2023-06-19T03:02:42;3.83;;;3.33;;
26303;SDS011;70693;48.680;8.890;2023-06-19T03:05:09;4.65;;;3.45;;
26303;SDS011;70693;48.680;8.890;2023-06-19T03:07:39;3.63;;;3.20;;
26303;SDS011;70693;48.680;8.890;2023-06-19T03:10:05;4.70;;;3.83;;
26303;SDS011;70693;48.680;8.890;2023-06-19T03:12:31;4.35;;;3.22;;
26303;SDS011;70693;48.680;8.890;2023-06-19T03:14:56;4.45;;;3.55;;
26303;SDS011;70693;48.680;8.890;2023-06-19T03:17:22;4.18;;;3.45;;
26303;SDS011;70693;48.680;8.890;2023-06-19T03:19:47;3.50;;;3.20;;
26303;SDS011;70693;48.680;8.890;2023-06-19T03:22:13;3.40;;;3.10;;
26303;SDS011;70693;48.680;8.890;2023-06-19T03:24:39;3.50;;;3.20;;
26303;SDS011;70693;48.680;8.890;2023-06-19T03:27:04;4.20;;;3.20;;
26303;SDS011;70693;48.680;8.890;2023-06-19T03:29:30;3.53;;;3.20;;
26303;SDS011;70693;48.680;8.890;2023-06-19T03:31:56;4.18;;;3.55;;
26303;SDS011;70693;48.680;8.890;2023-06-19T03:34:21;3.83;;;3.38;;
26303;SDS011;70693;48.680;8.890;2023-06-19T03:36:47;3.42;;;3.13;;
26303;SDS011;70693;48.680;8.890;2023-06-19T03:39:12;3.40;;;3.10;;
26303;SDS011;70693;48.680;8.890;2023-06-19T03:41:39;3.78;;;3.15;;
26303;SDS011;70693;48.680;8.890;2023-06-19T03:44:04;3.20;;;2.90;;
26303;SDS011;70693;48.680;8.890;2023-06-19T03:46:30;3.40;;;3.00;;
26303;SDS011;70693;48.680;8.890;2023-06-19T03:48:55;5.45;;;3.42;;
26303;SDS011;70693;48.680;8.890;2023-06-19T03:51:21;4.35;;;3.28;;
26303;SDS011;70693;48.680;8.890;2023-06-19T03:53:47;3.67;;;3.20;;
26303;SDS011;70693;48.680;8.890;2023-06-19T03:56:12;4.00;;;3.20;;
26303;SDS011;70693;48.680;8.890;2023-06-19T03:58:38;3.97;;;3.03;;
26303;SDS011;70693;48.680;8.890;2023-06-19T04:01:04;3.83;;;3.17;;
26303;SDS011;70693;48.680;8.890;2023-06-19T04:03:30;4.05;;;3.03;;
26303;SDS011;70693;48.680;8.890;2023-06-19T04:05:56;3.75;;;3.08;;
26303;SDS011;70693;48.680;8.890;2023-06-19T04:08:21;3.28;;;2.95;;
26303;SDS011;70693;48.680;8.890;2023-06-19T04:10:47;3.35;;;3.00;;
26303;SDS011;70693;48.680;8.890;2023-06-19T04:13:13;3.65;;;3.30;;
26303;SDS011;70693;48.680;8.890;2023-06-19T04:15:38;3.13;;;2.80;;
26303;SDS011;70693;48.680;8.890;2023-06-19T04:18:04;3.75;;;3.00;;
26303;SDS011;70693;48.680;8.890;2023-06-19T04:20:30;4.28;;;3.08;;
26303;SDS011;70693;48.680;8.890;2023-06-19T04:22:55;4.18;;;3.10;;
26303;SDS011;70693;48.680;8.890;2023-06-19T04:25:21;2.90;;;2.65;;
26303;SDS011;70693;48.680;8.890;2023-06-19T04:27:47;3.50;;;2.92;;
26303;SDS011;70693;48.680;8.890;2023-06-19T04:30:12;3.60;;;2.90;;
26303;SDS011;70693;48.680;8.890;2023-06-19T04:32:38;4.20;;;2.88;;
26303;SDS011;70693;48.680;8.890;2023-06-19T04:35:07;3.13;;;2.83;;
26303;SDS011;70693;48.680;8.890;2023-06-19T04:37:33;3.80;;;3.20;;
26303;SDS011;70693;48.680;8.890;2023-06-19T04:39:59;3.30;;;3.00;;
26303;SDS011;70693;48.680;8.890;2023-06-19T04:42:24;2.83;;;2.45;;
26303;SDS011;70693;48.680;8.890;2023-06-19T04:44:51;3.15;;;2.88;;
26303;SDS011;70693;48.680;8.890;2023-06-19T04:47:17;5.57;;;2.15;;
26303;SDS011;70693;48.680;8.890;2023-06-19T04:49:45;4.25;;;2.65;;
26303;SDS011;70693;48.680;8.890;2023-06-19T04:52:11;5.93;;;2.60;;
26303;SDS011;70693;48.680;8.890;2023-06-19T04:54:36;4.93;;;3.15;;
26303;SDS011;70693;48.680;8.890;2023-06-19T04:57:02;3.38;;;2.78;;
26303;SDS011;70693;48.680;8.890;2023-06-19T04:59:28;5.30;;;2.90;;
26303;SDS011;70693;48.680;8.890;2023-06-19T05:01:55;4.82;;;2.70;;
26303;SDS011;70693;48.680;8.890;2023-06-19T05:04:22;6.97;;;2.78;;
26303;SDS011;70693;48.680;8.890;2023-06-19T05:06:48;2.97;;;2.63;;
26303;SDS011;70693;48.680;8.890;2023-06-19T05:09:15;4.60;;;3.00;;
26303;SDS011;70693;48.680;8.890;2023-06-19T05:11:41;3.65;;;2.60;;
26303;SDS011;70693;48.680;8.890;2023-06-19T05:14:06;3.35;;;2.88;;
26303;SDS011;70693;48.680;8.890;2023-06-19T05:16:33;4.45;;;2.40;;
26303;SDS011;70693;48.680;8.890;2023-06-19T05:18:59;3.10;;;2.65;;
26303;SDS011;70693;48.680;8.890;2023-06-19T05:21:25;3.75;;;2.47;;
26303;SDS011;70693;48.680;8.890;2023-06-19T05:23:51;3.75;;;2.50;;
26303;SDS011;70693;48.680;8.890;2023-06-19T05:26:18;4.15;;;2.70;;
26303;SDS011;70693;48.680;8.890;2023-06-19T05:28:47;5.00;;;3.00;;
26303;SDS011;70693;48.680;8.890;2023-06-19T05:31:15;3.72;;;2.47;;
26303;SDS011;70693;48.680;8.890;2023-06-19T05:33:42;5.10;;;2.45;;
26303;SDS011;70693;48.680;8.890;2023-06-19T05:36:07;2.90;;;2.53;;
26303;SDS011;70693;48.680;8.890;2023-06-19T05:38:33;3.92;;;2.60;;
26303;SDS011;70693;48.680;8.890;2023-06-19T05:40:59;3.00;;;2.45;;
26303;SDS011;70693;48.680;8.890;2023-06-19T05:43:25;3.25;;;2.08;;
26303;SDS011;70693;48.680;8.890;2023-06-19T05:45:51;2.78;;;2.22;;
26303;SDS011;70693;48.680;8.890;2023-06-19T05:48:18;4.38;;;2.42;;
26303;SDS011;70693;48.680;8.890;2023-06-19T05:50:43;5.18;;;2.47;;
26303;SDS011;70693;48.680;8.890;2023-06-19T05:53:09;3.22;;;2.40;;
26303;SDS011;70693;48.680;8.890;2023-06-19T05:55:34;3.33;;;2.50;;
26303;SDS011;70693;48.680;8.890;2023-06-19T05:58:01;4.43;;;2.35;;
26303;SDS011;70693;48.680;8.890;2023-06-19T06:00:27;2.88;;;2.30;;
26303;SDS011;70693;48.680;8.890;2023-06-19T06:02:55;2.60;;;2.38;;
26303;SDS011;70693;48.680;8.890;2023-06-19T06:05:27;2.70;;;2.30;;
26303;SDS011;70693;48.680;8.890;2023-06-19T06:07:53;2.58;;;2.20;;
26303;SDS011;70693;48.680;8.890;2023-06-19T06:10:23;3.03;;;2.60;;
26303;SDS011;70693;48.680;8.890;2023-06-19T06:12:50;3.03;;;2.70;;
26303;SDS011;70693;48.680;8.890;2023-06-19T06:15:15;3.08;;;2.38;;
26303;SDS011;70693;48.680;8.890;2023-06-19T06:17:42;4.63;;;2.20;;
26303;SDS011;70693;48.680;8.890;2023-06-19T06:20:08;4.07;;;2.50;;
26303;SDS011;70693;48.680;8.890;2023-06-19T06:22:37;2.47;;;2.28;;
26303;SDS011;70693;48.680;8.890;2023-06-19T06:25:03;3.75;;;2.42;;
26303;SDS011;70693;48.680;8.890;2023-06-19T06:27:29;2.67;;;2.38;;
26303;SDS011;70693;48.680;8.890;2023-06-19T06:29:55;2.92;;;2.38;;
26303;SDS011;70693;48.680;8.890;2023-06-19T06:32:20;3.47;;;2.20;;
26303;SDS011;70693;48.680;8.890;2023-06-19T06:34:46;2.38;;;2.13;;
26303;SDS011;70693;48.680;8.890;2023-06-19T06:37:12;2.22;;;2.03;;
26303;SDS011;70693;48.680;8.890;2023-06-19T06:39:38;3.55;;;2.50;;
26303;SDS011;70693;48.680;8.890;2023-06-19T06:42:03;2.65;;;2.10;;
26303;SDS011;70693;48.680;8.890;2023-06-19T06:44:29;3.15;;;2.38;;
26303;SDS011;70693;48.680;8.890;2023-06-19T06:46:55;2.70;;;2.42;;
26303;SDS011;70693;48.680;8.890;2023-06-19T06:49:20;4.53;;;2.40;;
26303;SDS011;70693;48.680;8.890;2023-06-19T06:51:47;2.53;;;2.20;;
26303;SDS011;70693;48.680;8.890;2023-06-19T06:54:13;3.97;;;2.22;;
26303;SDS011;70693;48.680;8.890;2023-06-19T06:56:38;3.15;;;2.20;;
26303;SDS011;70693;48.680;8.890;2023-06-19T06:59:04;2.97;;;2.30;;
26303;SDS011;70693;48.680;8.890;2023-06-19T07:01:29;2.22;;;2.00;;
26303;SDS011;70693;48.680;8.890;2023-06-19T07:03:55;2.45;;;2.05;;
26303;SDS011;70693;48.680;8.890;2023-06-19T07:06:21;4.22;;;2.45;;
26303;SDS011;70693;48.680;8.890;2023-06-19T07:08:46;3.17;;;2.20;;
26303;SDS011;70693;48.680;8.890;2023-06-19T07:11:13;2.78;;;2.28;;
26303;SDS011;70693;48.680;8.890;2023-06-19T07:13:39;4.80;;;2.30;;
26303;SDS011;70693;48.680;8.890;2023-06-19T07:16:06;3.63;;;2.00;;
26303;SDS011;70693;48.680;8.890;2023-06-19T07:18:32;3.20;;;2.30;;
26303;SDS011;70693;48.680;8.890;2023-06-19T07:21:00;3.15;;;2.20;;
26303;SDS011;70693;48.680;8.890;2023-06-19T07:23:26;5.10;;;2.55;;
26303;SDS011;70693;48.680;8.890;2023-06-19T07:25:52;2.60;;;2.40;;
26303;SDS011;70693;48.680;8.890;2023-06-19T07:28:17;2.25;;;2.05;;
26303;SDS011;70693;48.680;8.890;2023-06-19T07:30:43;3.00;;;2.10;;
26303;SDS011;70693;48.680;8.890;2023-06-19T07:33:10;2.83;;;2.22;;
26303;SDS011;70693;48.680;8.890;2023-06-19T07:35:35;3.35;;;2.38;;
26303;SDS011;70693;48.680;8.890;2023-06-19T07:38:01;2.90;;;2.00;;
26303;SDS011;70693;48.680;8.890;2023-06-19T07:40:26;2.45;;;2.10;;
26303;SDS011;70693;48.680;8.890;2023-06-19T07:42:52;2.45;;;2.00;;
26303;SDS011;70693;48.680;8.890;2023-06-19T07:45:18;2.35;;;1.95;;
26303;SDS011;70693;48.680;8.890;2023-06-19T07:47:43;2.80;;;2.22;;
26303;SDS011;70693;48.680;8.890;2023-06-19T07:50:18;2.42;;;2.00;;
26303;SDS011;70693;48.680;8.890;2023-06-19T07:52:43;2.58;;;2.13;;
26303;SDS011;70693;48.680;8.890;2023-06-19T07:55:09;3.15;;;2.22;;
26303;SDS011;70693;48.680;8.890;2023-06-19T07:57:35;2.88;;;1.90;;
26303;SDS011;70693;48.680;8.890;2023-06-19T08:00:01;2.33;;;2.08;;
26303;SDS011;70693;48.680;8.890;2023-06-19T08:02:32;2.20;;;2.00;;
26303;SDS011;70693;48.680;8.890;2023-06-19T08:04:57;3.15;;;1.98;;
26303;SDS011;70693;48.680;8.890;2023-06-19T08:07:23;2.20;;;1.88;;
26303;SDS011;70693;48.680;8.890;2023-06-19T08:09:49;2.75;;;2.20;;
26303;SDS011;70693;48.680;8.890;2023-06-19T08:12:14;2.63;;;2.15;;
26303;SDS011;70693;48.680;8.890;2023-06-19T08:14:40;2.83;;;2.17;;
26303;SDS011;70693;48.680;8.890;2023-06-19T08:17:05;2.00;;;1.80;;
26303;SDS011;70693;48.680;8.890;2023-06-19T08:19:31;2.63;;;1.85;;
26303;SDS011;70693;48.680;8.890;2023-06-19T08:21:57;2.22;;;2.03;;
26303;SDS011;70693;48.680;8.890;2023-06-19T08:24:22;2.17;;;1.90;;
26303;SDS011;70693;48.680;8.890;2023-06-19T08:26:48;2.28;;;1.83;;
26303;SDS011;70693;48.680;8.890;2023-06-19T08:29:16;2.10;;;1.90;;
26303;SDS011;70693;48.680;8.890;2023-06-19T08:31:42;2.42;;;2.00;;
26303;SDS011;70693;48.680;8.890;2023-06-19T08:34:08;2.15;;;1.95;;
26303;SDS011;70693;48.680;8.890;2023-06-19T08:36:35;2.40;;;1.95;;
26303;SDS011;70693;48.680;8.890;2023-06-19T08:39:01;2.03;;;1.83;;
26303;SDS011;70693;48.680;8.890;2023-06-19T08:41:27;2.15;;;1.70;;
26303;SDS011;70693;48.680;8.890;2023-06-19T08:43:53;2.08;;;1.88;;
26303;SDS011;70693;48.680;8.890;2023-06-19T08:46:20;2.17;;;1.90;;
26303;SDS011;70693;48.680;8.890;2023-06-19T08:48:45;2.03;;;1.67;;
26303;SDS011;70693;48.680;8.890;2023-06-19T08:51:11;2.60;;;1.92;;
26303;SDS011;70693;48.680;8.890;2023-06-19T08:53:45;2.13;;;1.83;;
26303;SDS011;70693;48.680;8.890;2023-06-19T08:56:12;2.28;;;1.92;;
26303;SDS011;70693;48.680;8.890;2023-06-19T08:58:37;1.95;;;1.77;;
26303;SDS011;70693;48.680;8.890;2023-06-19T09:01:03;1.73;;;1.63;;
26303;SDS011;70693;48.680;8.890;2023-06-19T09:03:29;2.38;;;1.38;;
26303;SDS011;70693;48.680;8.890;2023-06-19T09:05:54;2.15;;;1.70;;
26303;SDS011;70693;48.680;8.890;2023-06-19T09:08:20;1.92;;;1.73;;
26303;SDS011;70693;48.680;8.890;2023-06-19T09:10:56;1.98;;;1.75;;
26303;SDS011;70693;48.680;8.890;2023-06-19T09:13:23;1.98;;;1.60;;
26303;SDS011;70693;48.680;8.890;2023-06-19T09:15:49;2.47;;;1.95;;
26303;SDS011;70693;48.680;8.890;2023-06-19T09:18:31;2.45;;;1.73;;
26303;SDS011;70693;48.680;8.890;2023-06-19T09:21:14;2.20;;;1.88;;
26303;SDS011;70693;48.680;8.890;2023-06-19T09:23:44;2.03;;;1.80;;
26303;SDS011;70693;48.680;8.890;2023-06-19T09:26:10;2.05;;;1.63;;
26303;SDS011;70693;48.680;8.890;2023-06-19T09:28:40;2.08;;;1.70;;
26303;SDS011;70693;48.680;8.890;2023-06-19T09:31:09;2.08;;;1.88;;
26303;SDS011;70693;48.680;8.890;2023-06-19T09:33:36;2.00;;;1.70;;
26303;SDS011;70693;48.680;8.890;2023-06-19T09:36:03;1.85;;;1.67;;
26303;SDS011;70693;48.680;8.890;2023-06-19T09:38:34;1.60;;;1.48;;
26303;SDS011;70693;48.680;8.890;2023-06-19T09:41:03;1.50;;;1.40;;
26303;SDS011;70693;48.680;8.890;2023-06-19T09:43:37;2.28;;;1.50;;
26303;SDS011;70693;48.680;8.890;2023-06-19T09:46:07;1.70;;;1.50;;
26303;SDS011;70693;48.680;8.890;2023-06-19T09:48:34;1.60;;;1.50;;
26303;SDS011;70693;48.680;8.890;2023-06-19T09:51:18;1.95;;;1.75;;
26303;SDS011;70693;48.680;8.890;2023-06-19T09:53:46;1.70;;;1.35;;
26303;SDS011;70693;48.680;8.890;2023-06-19T09:56:14;1.77;;;1.45;;
26303;SDS011;70693;48.680;8.890;2023-06-19T09:58:41;2.47;;;1.63;;
26303;SDS011;70693;48.680;8.890;2023-06-19T10:01:08;1.70;;;1.60;;
26303;SDS011;70693;48.680;8.890;2023-06-19T10:03:34;1.90;;;1.45;;
26303;SDS011;70693;48.680;8.890;2023-06-19T10:06:01;1.65;;;1.48;;
26303;SDS011;70693;48.680;8.890;2023-06-19T10:08:31;2.38;;;1.65;;
26303;SDS011;70693;48.680;8.890;2023-06-19T10:11:05;1.88;;;1.50;;
26303;SDS011;70693;48.680;8.890;2023-06-19T10:13:32;1.67;;;1.40;;
26303;SDS011;70693;48.680;8.890;2023-06-19T10:16:03;1.55;;;1.40;;
26303;SDS011;70693;48.680;8.890;2023-06-19T10:18:31;1.65;;;1.40;;
26303;SDS011;70693;48.680;8.890;2023-06-19T10:20:57;1.52;;;1.38;;
26303;SDS011;70693;48.680;8.890;2023-06-19T10:23:25;1.70;;;1.50;;
26303;SDS011;70693;48.680;8.890;2023-06-19T10:28:45;1.50;;;1.38;;
26303;SDS011;70693;48.680;8.890;2023-06-19T10:31:11;1.70;;;1.48;;
26303;SDS011;70693;48.680;8.890;2023-06-19T10:33:37;1.88;;;1.45;;
26303;SDS011;70693;48.680;8.890;2023-06-19T10:36:18;1.65;;;1.30;;
26303;SDS011;70693;48.680;8.890;2023-06-19T10:38:47;2.05;;;1.67;;
26303;SDS011;70693;48.680;8.890;2023-06-19T10:41:21;1.40;;;1.20;;
26303;SDS011;70693;48.680;8.890;2023-06-19T10:46:34;2.28;;;1.48;;
26303;SDS011;70693;48.680;8.890;2023-06-19T10:49:01;1.20;;;1.10;;
26303;SDS011;70693;48.680;8.890;2023-06-19T10:51:38;1.90;;;1.60;;
26303;SDS011;70693;48.680;8.890;2023-06-19T10:54:05;1.63;;;1.40;;
26303;SDS011;70693;48.680;8.890;2023-06-19T10:56:31;1.70;;;1.42;;
26303;SDS011;70693;48.680;8.890;2023-06-19T10:59:07;1.40;;;1.30;;
26303;SDS011;70693;48.680;8.890;2023-06-19T11:01:41;1.95;;;1.63;;
26303;SDS011;70693;48.680;8.890;2023-06-19T11:04:09;2.95;;;1.83;;
26303;SDS011;70693;48.680;8.890;2023-06-19T11:06:37;1.73;;;1.50;;
26303;SDS011;70693;48.680;8.890;2023-06-19T11:09:04;1.35;;;1.25;;
26303;SDS011;70693;48.680;8.890;2023-06-19T11:11:43;1.88;;;1.42;;
26303;SDS011;70693;48.680;8.890;2023-06-19T11:14:13;1.98;;;1.40;;
26303;SDS011;70693;48.680;8.890;2023-06-19T11:16:41;1.70;;;1.33;;
26303;SDS011;70693;48.680;8.890;2023-06-19T11:19:09;1.85;;;1.60;;
26303;SDS011;70693;48.680;8.890;2023-06-19T11:21:39;2.70;;;1.55;;
26303;SDS011;70693;48.680;8.890;2023-06-19T11:24:06;2.08;;;1.60;;
26303;SDS011;70693;48.680;8.890;2023-06-19T11:26:42;1.70;;;1.60;;
26303;SDS011;70693;48.680;8.890;2023-06-19T11:31:45;1.70;;;1.60;;
26303;SDS011;70693;48.680;8.890;2023-06-19T11:34:12;1.48;;;1.38;;
26303;SDS011;70693;48.680;8.890;2023-06-19T11:36:38;1.90;;;1.70;;
26303;SDS011;70693;48.680;8.890;2023-06-19T11:39:08;1.70;;;1.60;;
26303;SDS011;70693;48.680;8.890;2023-06-19T11:41:38;1.95;;;1.58;;
26303;SDS011;70693;48.680;8.890;2023-06-19T11:44:05;2.15;;;1.55;;
26303;SDS011;70693;48.680;8.890;2023-06-19T11:46:34;1.90;;;1.48;;
26303;SDS011;70693;48.680;8.890;2023-06-19T11:49:09;1.83;;;1.55;;
26303;SDS011;70693;48.680;8.890;2023-06-19T11:51:39;3.30;;;1.60;;
26303;SDS011;70693;48.680;8.890;2023-06-19T11:54:06;1.70;;;1.60;;
26303;SDS011;70693;48.680;8.890;2023-06-19T11:56:34;1.88;;;1.52;;
26303;SDS011;70693;48.680;8.890;2023-06-19T11:59:00;1.90;;;1.60;;
26303;SDS011;70693;48.680;8.890;2023-06-19T12:01:26;1.48;;;1.38;;
26303;SDS011;70693;48.680;8.890;2023-06-19T12:03:52;1.90;;;1.52;;
26303;SDS011;70693;48.680;8.890;2023-06-19T12:06:18;2.70;;;1.60;;
26303;SDS011;70693;48.680;8.890;2023-06-19T12:08:44;1.75;;;1.65;;
26303;SDS011;70693;48.680;8.890;2023-06-19T12:11:09;1.60;;;1.50;;
26303;SDS011;70693;48.680;8.890;2023-06-19T12:13:35;1.85;;;1.60;;
26303;SDS011;70693;48.680;8.890;2023-06-19T12:16:01;1.95;;;1.55;;
26303;SDS011;70693;48.680;8.890;2023-06-19T12:18:28;1.48;;;1.38;;
26303;SDS011;70693;48.680;8.890;2023-06-19T12:20:54;1.70;;;1.60;;
26303;SDS011;70693;48.680;8.890;2023-06-19T12:23:20;2.05;;;1.60;;
26303;SDS011;70693;48.680;8.890;2023-06-19T12:25:46;1.80;;;1.65;;
26303;SDS011;70693;48.680;8.890;2023-06-19T12:28:11;2.47;;;1.42;;
26303;SDS011;70693;48.680;8.890;2023-06-19T12:30:43;2.15;;;1.60;;
26303;SDS011;70693;48.680;8.890;2023-06-19T12:33:17;2.00;;;1.70;;
26303;SDS011;70693;48.680;8.890;2023-06-19T12:35:43;2.88;;;1.73;;
26303;SDS011;70693;48.680;8.890;2023-06-19T12:38:09;1.65;;;1.40;;
26303;SDS011;70693;48.680;8.890;2023-06-19T12:40:36;2.05;;;1.75;;
26303;SDS011;70693;48.680;8.890;2023-06-19T12:43:02;2.35;;;1.73;;
26303;SDS011;70693;48.680;8.890;2023-06-19T12:45:28;2.25;;;1.73;;
26303;SDS011;70693;48.680;8.890;2023-06-19T12:47:53;1.83;;;1.58;;
26303;SDS011;70693;48.680;8.890;2023-06-19T12:50:19;1.73;;;1.50;;
26303;SDS011;70693;48.680;8.890;2023-06-19T12:52:44;2.30;;;1.67;;
26303;SDS011;70693;48.680;8.890;2023-06-19T12:55:10;1.90;;;1.60;;
26303;SDS011;70693;48.680;8.890;2023-06-19T12:57:36;1.73;;;1.55;;
26303;SDS011;70693;48.680;8.890;2023-06-19T13:00:02;1.65;;;1.52;;
26303;SDS011;70693;48.680;8.890;2023-06-19T13:02:33;3.42;;;2.53;;
26303;SDS011;70693;48.680;8.890;2023-06-19T13:04:59;5.70;;;2.60;;
26303;SDS011;70693;48.680;8.890;2023-06-19T13:07:25;3.47;;;3.10;;
26303;SDS011;70693;48.680;8.890;2023-06-19T13:09:51;4.22;;;3.00;;
26303;SDS011;70693;48.680;8.890;2023-06-19T13:12:16;3.50;;;2.75;;
26303;SDS011;70693;48.680;8.890;2023-06-19T13:14:42;3.53;;;2.90;;
26303;SDS011;70693;48.680;8.890;2023-06-19T13:17:08;3.78;;;2.97;;
26303;SDS011;70693;48.680;8.890;2023-06-19T13:19:34;6.00;;;3.05;;
26303;SDS011;70693;48.680;8.890;2023-06-19T13:21:59;4.72;;;2.92;;
26303;SDS011;70693;48.680;8.890;2023-06-19T13:24:25;9.43;;;3.42;;
26303;SDS011;70693;48.680;8.890;2023-06-19T13:26:54;5.00;;;3.10;;
26303;SDS011;70693;48.680;8.890;2023-06-19T13:29:20;3.83;;;2.72;;
26303;SDS011;70693;48.680;8.890;2023-06-19T13:31:45;5.22;;;2.70;;
26303;SDS011;70693;48.680;8.890;2023-06-19T13:34:11;3.55;;;2.97;;
26303;SDS011;70693;48.680;8.890;2023-06-19T13:36:37;4.18;;;2.80;;
26303;SDS011;70693;48.680;8.890;2023-06-19T13:39:03;4.75;;;2.58;;
26303;SDS011;70693;48.680;8.890;2023-06-19T13:41:29;4.70;;;2.60;;
26303;SDS011;70693;48.680;8.890;2023-06-19T13:43:57;2.38;;;2.17;;
26303;SDS011;70693;48.680;8.890;2023-06-19T13:46:24;5.15;;;2.72;;
26303;SDS011;70693;48.680;8.890;2023-06-19T13:48:50;5.93;;;2.88;;
26303;SDS011;70693;48.680;8.890;2023-06-19T13:51:20;3.03;;;2.60;;
26303;SDS011;70693;48.680;8.890;2023-06-19T13:53:47;2.80;;;2.45;;
26303;SDS011;70693;48.680;8.890;2023-06-19T13:56:13;4.88;;;2.85;;
26303;SDS011;70693;48.680;8.890;2023-06-19T13:58:39;3.08;;;2.50;;
26303;SDS011;70693;48.680;8.890;2023-06-19T14:01:05;2.83;;;2.33;;
26303;SDS011;70693;48.680;8.890;2023-06-19T14:03:31;2.85;;;2.35;;
26303;SDS011;70693;48.680;8.890;2023-06-19T14:05:57;2.67;;;2.45;;
26303;SDS011;70693;48.680;8.890;2023-06-19T14:08:22;4.95;;;2.42;;
26303;SDS011;70693;48.680;8.890;2023-06-19T14:10:49;2.53;;;2.30;;
26303;SDS011;70693;48.680;8.890;2023-06-19T14:13:15;3.17;;;2.38;;
26303;SDS011;70693;48.680;8.890;2023-06-19T14:15:40;2.80;;;2.60;;
26303;SDS011;70693;48.680;8.890;2023-06-19T14:18:06;2.45;;;2.15;;
26303;SDS011;70693;48.680;8.890;2023-06-19T14:20:31;2.58;;;2.08;;
26303;SDS011;70693;48.680;8.890;2023-06-19T14:22:57;2.78;;;2.50;;
26303;SDS011;70693;48.680;8.890;2023-06-19T14:25:23;2.63;;;2.35;;
26303;SDS011;70693;48.680;8.890;2023-06-19T14:27:49;3.15;;;2.33;;
26303;SDS011;70693;48.680;8.890;2023-06-19T14:30:14;3.10;;;2.20;;
26303;SDS011;70693;48.680;8.890;2023-06-19T14:32:40;3.42;;;2.63;;
26303;SDS011;70693;48.680;8.890;2023-06-19T14:35:06;3.50;;;2.15;;
26303;SDS011;70693;48.680;8.890;2023-06-19T14:37:32;3.03;;;2.30;;
26303;SDS011;70693;48.680;8.890;2023-06-19T14:39:57;3.40;;;2.22;;
26303;SDS011;70693;48.680;8.890;2023-06-19T14:42:23;2.58;;;2.03;;
26303;SDS011;70693;48.680;8.890;2023-06-19T14:44:48;2.40;;;2.17;;
26303;SDS011;70693;48.680;8.890;2023-06-19T14:47:14;2.40;;;2.20;;
26303;SDS011;70693;48.680;8.890;2023-06-19T14:49:40;3.80;;;2.40;;
26303;SDS011;70693;48.680;8.890;2023-06-19T14:52:06;2.95;;;2.38;;
26303;SDS011;70693;48.680;8.890;2023-06-19T14:54:32;2.53;;;1.98;;